sensor_id;sensor_type;location;lat;lon;timestamp;temperature;humidity
42663;DHT22;44330;51.360;6.686;2023-05-07T17:19:33;19.60;57.40
42663;DHT22;44330;51.360;6.686;2023-05-07T17:22:30;19.60;54.80
42663;DHT22;44330;51.360;6.686;2023-05-07T17:25:27;19.60;53.30
42663;DHT22;44330;51.360;6.686;2023-05-07T17:52:04;19.40;63.20
42663;DHT22;44330;51.360;6.686;2023-05-07T17:54:55;19.30;61.30
42663;DHT22;44330;51.360;6.686;2023-05-07T17:57:33;19.30;60.90
42663;DHT22;44330;51.360;6.686;2023-05-07T18:04:11;19.20;67.60
42663;DHT22;44330;51.360;6.686;2023-05-07T18:06:46;19.10;69.50
42663;DHT22;44330;51.360;6.686;2023-05-07T18:09:20;19.20;70.70
42663;DHT22;44330;51.360;6.686;2023-05-07T18:12:43;19.10;72.00
42663;DHT22;44330;51.360;6.686;2023-05-07T18:15:37;19.10;74.20
42663;DHT22;44330;51.360;6.686;2023-05-07T18:18:46;19.00;74.80
42663;DHT22;44330;51.360;6.686;2023-05-07T18:21:39;18.90;75.60
42663;DHT22;44330;51.360;6.686;2023-05-07T18:24:18;18.90;76.50
42663;DHT22;44330;51.360;6.686;2023-05-07T18:26:44;18.90;77.60
42663;DHT22;44330;51.360;6.686;2023-05-07T18:29:09;18.90;78.00
42663;DHT22;44330;51.360;6.686;2023-05-07T18:31:38;18.80;77.30
42663;DHT22;44330;51.360;6.686;2023-05-07T18:34:09;18.80;77.40
42663;DHT22;44330;51.360;6.686;2023-05-07T18:36:35;18.70;77.50
42663;DHT22;44330;51.360;6.686;2023-05-07T18:39:03;18.70;77.90
42663;DHT22;44330;51.360;6.686;2023-05-07T18:41:28;18.60;75.30
42663;DHT22;44330;51.360;6.686;2023-05-07T18:43:54;18.60;76.30
42663;DHT22;44330;51.360;6.686;2023-05-07T18:46:27;18.40;71.90
42663;DHT22;44330;51.360;6.686;2023-05-07T18:48:59;18.50;72.70
42663;DHT22;44330;51.360;6.686;2023-05-07T18:51:25;18.40;73.40
42663;DHT22;44330;51.360;6.686;2023-05-07T18:53:51;18.30;73.90
42663;DHT22;44330;51.360;6.686;2023-05-07T18:56:17;18.30;73.10
42663;DHT22;44330;51.360;6.686;2023-05-07T18:58:43;18.30;74.00
42663;DHT22;44330;51.360;6.686;2023-05-07T19:01:10;18.20;75.50
42663;DHT22;44330;51.360;6.686;2023-05-07T19:03:38;18.10;68.30
42663;DHT22;44330;51.360;6.686;2023-05-07T19:06:04;18.00;68.80
42663;DHT22;44330;51.360;6.686;2023-05-07T19:08:32;18.00;71.30
42663;DHT22;44330;51.360;6.686;2023-05-07T19:10:58;17.90;73.90
42663;DHT22;44330;51.360;6.686;2023-05-07T19:13:26;17.90;76.00
42663;DHT22;44330;51.360;6.686;2023-05-07T19:15:55;17.90;77.90
42663;DHT22;44330;51.360;6.686;2023-05-07T19:18:34;17.90;78.90
42663;DHT22;44330;51.360;6.686;2023-05-07T19:21:02;17.90;80.00
42663;DHT22;44330;51.360;6.686;2023-05-07T19:23:28;17.80;80.40
42663;DHT22;44330;51.360;6.686;2023-05-07T19:26:00;17.80;81.00
42663;DHT22;44330;51.360;6.686;2023-05-07T19:28:34;17.70;80.70
42663;DHT22;44330;51.360;6.686;2023-05-07T19:30:59;17.70;80.90
42663;DHT22;44330;51.360;6.686;2023-05-07T19:33:25;17.80;81.00
42663;DHT22;44330;51.360;6.686;2023-05-07T19:35:53;17.70;81.30
42663;DHT22;44330;51.360;6.686;2023-05-07T19:38:22;17.60;82.30
42663;DHT22;44330;51.360;6.686;2023-05-07T19:40:57;17.60;82.60
42663;DHT22;44330;51.360;6.686;2023-05-07T19:47:06;17.50;84.00
42663;DHT22;44330;51.360;6.686;2023-05-07T19:49:43;17.40;84.60
42663;DHT22;44330;51.360;6.686;2023-05-07T19:52:18;17.50;85.00
42663;DHT22;44330;51.360;6.686;2023-05-07T19:54:43;17.40;85.50
42663;DHT22;44330;51.360;6.686;2023-05-07T19:57:09;17.40;85.30
42663;DHT22;44330;51.360;6.686;2023-05-07T20:05:45;17.20;86.10
42663;DHT22;44330;51.360;6.686;2023-05-07T20:08:15;17.20;86.20
42663;DHT22;44330;51.360;6.686;2023-05-07T20:10:43;17.20;86.30
42663;DHT22;44330;51.360;6.686;2023-05-07T20:13:10;17.10;86.60
42663;DHT22;44330;51.360;6.686;2023-05-07T20:15:36;17.10;86.60
42663;DHT22;44330;51.360;6.686;2023-05-07T20:18:02;17.10;87.00
42663;DHT22;44330;51.360;6.686;2023-05-07T20:20:28;17.10;87.40
42663;DHT22;44330;51.360;6.686;2023-05-07T20:22:54;17.00;87.40
42663;DHT22;44330;51.360;6.686;2023-05-07T20:25:19;17.00;87.50
42663;DHT22;44330;51.360;6.686;2023-05-07T20:27:45;17.00;87.80
42663;DHT22;44330;51.360;6.686;2023-05-07T20:30:11;17.00;88.40
42663;DHT22;44330;51.360;6.686;2023-05-07T20:32:37;17.00;88.70
42663;DHT22;44330;51.360;6.686;2023-05-07T20:35:03;16.90;88.50
42663;DHT22;44330;51.360;6.686;2023-05-07T20:37:31;16.90;88.80
42663;DHT22;44330;51.360;6.686;2023-05-07T20:39:58;16.90;88.80
42663;DHT22;44330;51.360;6.686;2023-05-07T20:42:24;16.90;89.10
42663;DHT22;44330;51.360;6.686;2023-05-07T20:44:50;16.90;89.40
42663;DHT22;44330;51.360;6.686;2023-05-07T20:47:15;16.80;89.70
42663;DHT22;44330;51.360;6.686;2023-05-07T20:49:41;16.80;89.90
42663;DHT22;44330;51.360;6.686;2023-05-07T20:52:07;16.80;89.90
42663;DHT22;44330;51.360;6.686;2023-05-07T20:54:33;16.90;89.90
42663;DHT22;44330;51.360;6.686;2023-05-07T20:57:04;16.80;89.90
42663;DHT22;44330;51.360;6.686;2023-05-07T20:59:30;16.80;90.10
42663;DHT22;44330;51.360;6.686;2023-05-07T21:01:59;16.70;90.30
42663;DHT22;44330;51.360;6.686;2023-05-07T21:04:25;16.70;90.60
42663;DHT22;44330;51.360;6.686;2023-05-07T21:06:50;16.70;90.80
42663;DHT22;44330;51.360;6.686;2023-05-07T21:09:16;16.60;90.90
42663;DHT22;44330;51.360;6.686;2023-05-07T21:11:42;16.60;91.00
42663;DHT22;44330;51.360;6.686;2023-05-07T21:14:07;16.50;91.10
42663;DHT22;44330;51.360;6.686;2023-05-07T21:16:33;16.60;91.30
42663;DHT22;44330;51.360;6.686;2023-05-07T21:18:58;16.60;91.60
42663;DHT22;44330;51.360;6.686;2023-05-07T21:21:24;16.60;91.50
42663;DHT22;44330;51.360;6.686;2023-05-07T21:23:50;16.60;91.50
42663;DHT22;44330;51.360;6.686;2023-05-07T21:26:18;16.60;91.60
42663;DHT22;44330;51.360;6.686;2023-05-07T21:28:43;16.50;91.70
42663;DHT22;44330;51.360;6.686;2023-05-07T21:31:10;16.40;91.60
42663;DHT22;44330;51.360;6.686;2023-05-07T21:33:36;16.40;91.40
42663;DHT22;44330;51.360;6.686;2023-05-07T21:36:01;16.40;91.20
42663;DHT22;44330;51.360;6.686;2023-05-07T21:38:27;16.40;91.30
42663;DHT22;44330;51.360;6.686;2023-05-07T21:40:53;16.40;91.30
42663;DHT22;44330;51.360;6.686;2023-05-07T21:43:18;16.40;91.40
42663;DHT22;44330;51.360;6.686;2023-05-07T21:45:44;16.40;91.70
42663;DHT22;44330;51.360;6.686;2023-05-07T21:48:12;16.30;91.50
42663;DHT22;44330;51.360;6.686;2023-05-07T21:50:38;16.30;91.60
42663;DHT22;44330;51.360;6.686;2023-05-07T21:53:04;16.30;91.60
42663;DHT22;44330;51.360;6.686;2023-05-07T21:55:29;16.20;91.60
42663;DHT22;44330;51.360;6.686;2023-05-07T21:57:57;16.20;91.70
42663;DHT22;44330;51.360;6.686;2023-05-07T22:00:23;16.20;91.80
42663;DHT22;44330;51.360;6.686;2023-05-07T22:02:52;16.20;91.90
42663;DHT22;44330;51.360;6.686;2023-05-07T22:05:17;16.20;92.10
42663;DHT22;44330;51.360;6.686;2023-05-07T22:07:46;16.10;92.30
42663;DHT22;44330;51.360;6.686;2023-05-07T22:10:12;16.20;92.60
42663;DHT22;44330;51.360;6.686;2023-05-07T22:12:38;16.10;92.60
42663;DHT22;44330;51.360;6.686;2023-05-07T22:15:06;16.10;92.70
42663;DHT22;44330;51.360;6.686;2023-05-07T22:17:35;16.10;92.90
42663;DHT22;44330;51.360;6.686;2023-05-07T22:20:00;16.10;93.10
42663;DHT22;44330;51.360;6.686;2023-05-07T22:22:26;16.10;93.20
42663;DHT22;44330;51.360;6.686;2023-05-07T22:24:52;16.00;93.30
42663;DHT22;44330;51.360;6.686;2023-05-07T22:27:17;16.00;93.40
42663;DHT22;44330;51.360;6.686;2023-05-07T22:29:47;16.00;93.50
42663;DHT22;44330;51.360;6.686;2023-05-07T22:32:15;16.00;93.50
42663;DHT22;44330;51.360;6.686;2023-05-07T22:34:48;16.00;93.60
42663;DHT22;44330;51.360;6.686;2023-05-07T22:37:15;16.00;93.70
42663;DHT22;44330;51.360;6.686;2023-05-07T22:39:42;16.00;93.70
42663;DHT22;44330;51.360;6.686;2023-05-07T22:42:15;16.00;93.80
42663;DHT22;44330;51.360;6.686;2023-05-07T22:44:46;15.90;93.90
42663;DHT22;44330;51.360;6.686;2023-05-07T22:47:11;15.90;93.90
42663;DHT22;44330;51.360;6.686;2023-05-07T22:49:39;15.90;93.90
42663;DHT22;44330;51.360;6.686;2023-05-07T22:52:07;15.90;94.00
42663;DHT22;44330;51.360;6.686;2023-05-07T22:54:33;15.90;94.00
42663;DHT22;44330;51.360;6.686;2023-05-07T22:56:59;15.90;94.00
42663;DHT22;44330;51.360;6.686;2023-05-07T22:59:25;15.90;94.10
42663;DHT22;44330;51.360;6.686;2023-05-07T23:01:50;15.90;94.10
42663;DHT22;44330;51.360;6.686;2023-05-07T23:04:19;15.90;94.20
42663;DHT22;44330;51.360;6.686;2023-05-07T23:06:47;15.90;94.20
42663;DHT22;44330;51.360;6.686;2023-05-07T23:09:13;15.80;94.10
42663;DHT22;44330;51.360;6.686;2023-05-07T23:11:46;15.90;94.20
42663;DHT22;44330;51.360;6.686;2023-05-07T23:14:32;15.90;94.30
42663;DHT22;44330;51.360;6.686;2023-05-07T23:17:00;15.80;94.30
42663;DHT22;44330;51.360;6.686;2023-05-07T23:19:28;15.80;94.30
42663;DHT22;44330;51.360;6.686;2023-05-07T23:22:09;15.90;94.40
42663;DHT22;44330;51.360;6.686;2023-05-07T23:24:48;15.80;94.50
42663;DHT22;44330;51.360;6.686;2023-05-07T23:27:13;15.80;94.40
42663;DHT22;44330;51.360;6.686;2023-05-07T23:29:44;15.80;94.40
42663;DHT22;44330;51.360;6.686;2023-05-07T23:32:10;15.80;94.50
42663;DHT22;44330;51.360;6.686;2023-05-07T23:34:48;15.70;94.40
42663;DHT22;44330;51.360;6.686;2023-05-07T23:37:15;15.70;94.50
42663;DHT22;44330;51.360;6.686;2023-05-07T23:39:42;15.70;94.60
42663;DHT22;44330;51.360;6.686;2023-05-07T23:42:13;15.70;94.60
42663;DHT22;44330;51.360;6.686;2023-05-07T23:44:41;15.70;94.70
42663;DHT22;44330;51.360;6.686;2023-05-07T23:47:07;15.70;94.70
42663;DHT22;44330;51.360;6.686;2023-05-07T23:49:35;15.70;94.60
42663;DHT22;44330;51.360;6.686;2023-05-07T23:52:02;15.60;94.60
42663;DHT22;44330;51.360;6.686;2023-05-07T23:54:35;15.60;94.60
